Portada
METAR-TAF:

METAR-TAF

Aeroports :

Tennant Creek, Austràlia

latitud: 19-38-04S, longitud: 134-11-00E, altitud: 377 m

Observació

L'informe es va fer fa 1 hora i 4 minuts, a les 17:00 UTC
Vent 16 kt del Est/Sud-Est
Temperatura 20°C
Humitat 24%
Pressió 1018 hPa
Visibilitat 10 km o més
Cel ennuvolat a una alçada de 11000 ft

METAR: YTNK 211700Z AUTO 12016KT 9999 // BKN110 20/M01 Q1018

Hora: 03:34 (18:04 UTC)

Pronòstic

L'informe es va fer fa 5 hores i 53 minuts, a les 12:11 UTC
Pronòstic vàlid del 21 a les 14 UTC al 22 a les 02 UTC
Vent 14 kt del Est/Sud-Est
Visibilitat 10 km o més
sense núvols per sota de 1500 mi sense presència de cumulonimbus.
A partir de les 21 a les 2300 UTC
Vent 18 kt del Est/Sud-Est amb ràfegues de 28 kt
Visibilitat 10 km o més
sense núvols per sota de 1500 mi sense presència de cumulonimbus.

TAF: YTNK 211211Z 2114/2202 11014KT CAVOK FM212300 12018G28KT CAVOK

Observacions i pronòstics meteorològics de més de 4000 aeroports (METAR i TAF).

Les estacions disponibles són els punts grocs i vermells al mapa.

Posi el ratolí al punt desitjat per veure el nom de l'estació.

Feu clic per veure les observacions i els pronòstics meteorològics.

Per canviar el mapa: feu clic els botons verds amb una creu de color negre per apropar; al botó verd amb un guió per allunyar la imatge; o en les fletxes verdes per a mapes adjacents.


METAR-TAF: